Time;durP1;ratioP1;P1;durP2;ratioP2;P2;SDS_P1;SDS_P2;PMS_P1;PMS_P2;Temp;Humidity;BMP_temperature;BMP_pressure;BME280_temperature;BME280_humidity;BME280_pressure;Samples;Min_cycle;Max_cycle;Signal;HPM_P1;HPM_P2
2021/11/20 00:01:08;;;;;;;6.47;5.10;;;11.70;99.90;;;;;;5075031;28;20708;-50
2021/11/20 00:03:38;;;;;;;7.83;6.60;;;11.80;99.90;;;;;;5075323;28;21032;-52
2021/11/20 00:06:05;;;;;;;6.50;5.80;;;11.80;99.90;;;;;;5078033;28;20774;-51
2021/11/20 00:08:33;;;;;;;6.90;6.20;;;11.60;99.90;;;;;;5075087;28;20297;-52
2021/11/20 00:11:02;;;;;;;6.67;5.83;;;11.50;99.90;;;;;;5047902;28;20704;-50
2021/11/20 00:13:30;;;;;;;7.77;6.53;;;11.80;99.90;;;;;;5074471;28;20340;-51
2021/11/20 00:15:59;;;;;;;8.87;6.57;;;11.80;99.90;;;;;;5072854;28;20275;-50
2021/11/20 00:18:29;;;;;;;7.23;6.43;;;11.70;99.90;;;;;;5079011;28;20225;-50
2021/11/20 00:20:58;;;;;;;10.93;6.50;;;11.90;99.90;;;;;;5078408;28;21617;-49
2021/11/20 00:23:33;;;;;;;7.33;6.53;;;11.70;99.90;;;;;;5077329;28;20220;-51
2021/11/20 00:26:02;;;;;;;8.87;6.83;;;11.60;99.90;;;;;;5076069;28;20197;-52
2021/11/20 00:29:04;;;;;;;9.53;7.10;;;11.70;99.90;;;;;;5078358;28;20245;-49
2021/11/20 00:31:21;;;;;;;9.47;6.97;;;11.80;99.90;;;;;;5077044;28;20654;-50
2021/11/20 00:33:48;;;;;;;9.67;6.50;;;11.70;99.90;;;;;;5069185;28;20253;-52
2021/11/20 00:36:15;;;;;;;9.37;6.97;;;11.80;99.90;;;;;;5066105;28;20736;-50
2021/11/20 00:38:44;;;;;;;8.43;7.10;;;11.70;99.90;;;;;;5076467;28;20237;-51
2021/11/20 00:41:16;;;;;;;10.00;7.43;;;11.90;99.90;;;;;;5078227;28;20290;-49
2021/11/20 00:43:45;;;;;;;9.50;7.37;;;11.90;99.90;;;;;;5074928;28;20655;-50
2021/11/20 00:46:14;;;;;;;7.57;6.77;;;12.10;99.90;;;;;;5063620;28;20656;-51
2021/11/20 00:48:43;;;;;;;9.17;8.10;;;12.10;99.90;;;;;;5069885;28;20277;-51
2021/11/20 00:51:11;;;;;;;8.27;7.43;;;12.10;99.90;;;;;;5077573;28;20204;-51
2021/11/20 00:53:38;;;;;;;12.10;7.70;;;12.10;99.90;;;;;;5076649;28;20242;-52
2021/11/20 00:56:06;;;;;;;8.93;7.47;;;11.90;99.90;;;;;;5077191;28;20219;-51
2021/11/20 00:58:34;;;;;;;10.03;7.77;;;11.90;99.90;;;;;;5075625;28;20371;-51
2021/11/20 01:01:03;;;;;;;8.73;7.23;;;12.10;99.90;;;;;;5079391;28;20194;-51
2021/11/20 01:03:31;;;;;;;11.43;8.60;;;12.10;99.90;;;;;;5076289;28;20204;-50
2021/11/20 01:05:58;;;;;;;9.67;8.20;;;12.10;99.90;;;;;;5061643;28;20253;-50
2021/11/20 01:08:31;;;;;;;10.70;8.40;;;12.10;99.90;;;;;;5065868;28;20980;-53
2021/11/20 01:11:06;;;;;;;9.63;8.07;;;12.00;99.90;;;;;;5077164;28;20656;-51
2021/11/20 01:13:34;;;;;;;12.33;8.60;;;12.10;99.90;;;;;;5068896;28;20219;-52
2021/11/20 01:16:06;;;;;;;10.90;8.90;;;12.10;99.90;;;;;;5077248;28;20900;-52
2021/11/20 01:18:33;;;;;;;10.50;8.87;;;12.20;99.90;;;;;;5075924;28;20260;-50
2021/11/20 01:21:00;;;;;;;10.20;8.10;;;12.00;99.90;;;;;;5070164;28;20230;-51
2021/11/20 01:23:30;;;;;;;11.43;9.60;;;11.90;99.90;;;;;;5074766;28;21010;-53
2021/11/20 01:25:58;;;;;;;12.20;9.40;;;11.90;99.90;;;;;;5076325;28;20209;-50
2021/11/20 01:28:27;;;;;;;12.67;9.50;;;11.90;99.90;;;;;;5077800;28;20264;-51
2021/11/20 01:30:54;;;;;;;11.23;9.97;;;12.10;99.90;;;;;;5076504;28;20207;-50
2021/11/20 01:33:22;;;;;;;14.57;10.87;;;12.10;99.90;;;;;;5077858;28;20226;-51
2021/11/20 01:35:49;;;;;;;19.37;13.87;;;11.80;99.90;;;;;;5066617;28;20729;-50
2021/11/20 01:38:16;;;;;;;14.03;11.50;;;11.70;99.90;;;;;;5077822;28;20626;-50
2021/11/20 01:40:44;;;;;;;14.57;12.67;;;11.90;99.90;;;;;;5076461;28;20233;-50
2021/11/20 01:43:11;;;;;;;17.97;13.00;;;11.80;99.90;;;;;;5076325;28;20232;-51
2021/11/20 01:45:57;;;;;;;15.90;12.53;;;11.70;99.90;;;;;;5077396;28;20603;-50
2021/11/20 01:48:51;;;;;;;17.70;12.90;;;11.70;99.90;;;;;;5077555;28;20208;-51
2021/11/20 01:51:32;;;;;;;17.33;14.07;;;11.60;99.90;;;;;;5075469;28;20236;-49
2021/11/20 01:54:26;;;;;;;16.40;13.30;;;11.60;99.90;;;;;;5079023;28;20262;-53
2021/11/20 01:57:03;;;;;;;18.57;13.67;;;11.70;99.90;;;;;;5068334;28;20666;-51
2021/11/20 01:59:32;;;;;;;15.90;13.13;;;11.60;99.90;;;;;;5077918;28;20262;-50
2021/11/20 02:02:10;;;;;;;18.60;14.97;;;11.50;99.90;;;;;;5077378;28;20235;-49
2021/11/20 02:04:57;;;;;;;20.57;14.13;;;11.50;99.90;;;;;;5076747;28;20224;-49
2021/11/20 02:07:35;;;;;;;18.70;13.67;;;11.60;99.90;;;;;;5069974;28;20974;-51
2021/11/20 02:10:11;;;;;;;19.40;13.70;;;11.70;99.90;;;;;;5074768;28;21066;-51
2021/11/20 02:12:52;;;;;;;19.97;14.23;;;11.70;99.90;;;;;;5076850;28;20326;-49
2021/11/20 02:15:26;;;;;;;18.27;13.50;;;11.50;99.90;;;;;;5075146;28;20576;-51
2021/11/20 02:17:56;;;;;;;21.23;15.20;;;11.40;99.90;;;;;;5079638;28;20193;-53
2021/11/20 02:20:32;;;;;;;20.83;14.90;;;11.60;99.90;;;;;;5083912;28;20251;-50
2021/11/20 02:22:59;;;;;;;18.73;14.27;;;11.60;99.90;;;;;;5082815;28;20282;-51
2021/11/20 02:25:25;;;;;;;21.50;15.07;;;11.80;99.90;;;;;;5082201;28;20204;-51
2021/11/20 02:27:55;;;;;;;23.67;15.33;;;11.90;99.90;;;;;;5079058;28;20244;-51
2021/11/20 02:30:25;;;;;;;21.27;15.40;;;11.70;99.90;;;;;;5080113;28;20740;-50
2021/11/20 02:32:57;;;;;;;25.23;16.13;;;11.60;99.90;;;;;;5082166;28;20213;-50
2021/11/20 02:35:32;;;;;;;23.77;16.57;;;11.50;99.90;;;;;;5081720;28;20773;-50
2021/11/20 02:38:01;;;;;;;23.20;16.77;;;11.50;99.90;;;;;;5078637;28;20242;-50
2021/11/20 02:40:28;;;;;;;23.77;17.10;;;11.40;99.90;;;;;;5080291;28;20227;-51
2021/11/20 02:42:56;;;;;;;23.67;16.80;;;11.40;99.90;;;;;;5076947;28;20253;-50
2021/11/20 02:45:32;;;;;;;23.40;16.43;;;11.70;99.90;;;;;;5076433;28;20194;-51
2021/11/20 02:48:00;;;;;;;25.37;16.67;;;11.80;99.90;;;;;;5078201;28;20210;-51
2021/11/20 02:50:37;;;;;;;26.73;18.33;;;11.50;99.90;;;;;;5078069;28;20630;-50
2021/11/20 02:53:14;;;;;;;22.00;16.63;;;11.50;99.90;;;;;;5079410;28;20274;-51
2021/11/20 02:55:45;;;;;;;26.43;17.43;;;11.60;99.90;;;;;;5077396;28;20195;-52
2021/11/20 02:58:14;;;;;;;25.60;17.63;;;11.60;99.90;;;;;;5077711;28;20363;-50
2021/11/20 03:00:42;;;;;;;24.30;17.17;;;11.60;99.90;;;;;;5079820;28;20249;-50
2021/11/20 03:03:09;;;;;;;24.80;17.07;;;11.80;99.90;;;;;;5079495;28;20618;-52
2021/11/20 03:05:35;;;;;;;25.70;17.60;;;11.70;99.90;;;;;;5078864;28;20210;-52
2021/11/20 03:08:02;;;;;;;23.87;17.33;;;11.60;99.90;;;;;;5079919;28;20583;-52
2021/11/20 03:10:30;;;;;;;23.97;17.17;;;11.60;99.90;;;;;;5077296;28;20355;-51
2021/11/20 03:12:57;;;;;;;24.93;16.57;;;11.60;99.90;;;;;;5064495;28;20256;-50
2021/11/20 03:15:24;;;;;;;27.50;16.83;;;11.60;99.90;;;;;;5079963;28;20288;-54
2021/11/20 03:17:51;;;;;;;27.27;18.77;;;11.70;99.90;;;;;;5077604;28;20192;-51
2021/11/20 03:20:19;;;;;;;27.50;18.20;;;11.70;99.90;;;;;;5079037;28;20673;-51
2021/11/20 03:22:46;;;;;;;23.80;16.57;;;11.60;99.90;;;;;;5079799;28;20582;-50
2021/11/20 03:25:13;;;;;;;26.90;17.53;;;11.50;99.90;;;;;;5077959;28;20234;-54
2021/11/20 03:27:40;;;;;;;27.90;18.60;;;11.40;99.90;;;;;;5078598;28;20308;-51
2021/11/20 03:30:08;;;;;;;26.17;16.40;;;11.40;99.90;;;;;;5074789;28;21889;-51
2021/11/20 03:32:35;;;;;;;26.00;17.53;;;11.30;99.90;;;;;;5080290;28;20210;-52
2021/11/20 03:35:04;;;;;;;25.77;16.77;;;11.30;99.90;;;;;;5081514;28;20321;-51
2021/11/20 03:37:31;;;;;;;28.80;18.00;;;11.20;99.90;;;;;;5069811;28;20271;-50
2021/11/20 03:39:58;;;;;;;26.40;18.07;;;11.30;99.90;;;;;;5079774;28;20223;-52
2021/11/20 03:42:25;;;;;;;28.43;17.57;;;11.30;99.90;;;;;;5078589;28;21156;-52
2021/11/20 03:44:52;;;;;;;28.00;18.40;;;11.30;99.90;;;;;;5071733;28;20250;-51
2021/11/20 03:47:19;;;;;;;25.73;17.67;;;11.40;99.90;;;;;;5077290;28;20230;-52
2021/11/20 03:49:46;;;;;;;25.70;17.43;;;11.30;99.90;;;;;;5080433;28;21555;-52
2021/11/20 03:52:13;;;;;;;26.73;16.40;;;11.30;99.90;;;;;;5075441;28;20347;-50
2021/11/20 03:54:41;;;;;;;25.97;17.37;;;11.30;99.90;;;;;;5072950;28;20215;-51
2021/11/20 03:57:08;;;;;;;27.63;17.03;;;11.30;99.90;;;;;;5080532;28;20294;-50
2021/11/20 03:59:35;;;;;;;26.40;17.60;;;11.30;99.90;;;;;;5077388;28;20204;-50
2021/11/20 04:02:03;;;;;;;27.50;18.10;;;11.20;99.90;;;;;;5061906;28;20595;-51
2021/11/20 04:04:32;;;;;;;28.73;17.33;;;11.20;99.90;;;;;;5075033;28;20203;-50
2021/11/20 04:06:59;;;;;;;29.10;18.60;;;11.10;99.90;;;;;;5069695;28;20235;-53
2021/11/20 04:09:26;;;;;;;31.00;19.27;;;11.20;99.90;;;;;;5074644;28;20349;-51
2021/11/20 04:11:52;;;;;;;28.33;17.77;;;11.30;99.90;;;;;;5077940;28;20242;-51
2021/11/20 04:14:21;;;;;;;29.23;18.70;;;11.40;99.90;;;;;;5078432;28;20321;-50
2021/11/20 04:16:49;;;;;;;32.93;21.13;;;11.50;99.90;;;;;;5077401;28;20293;-50
2021/11/20 04:19:17;;;;;;;31.40;19.07;;;11.30;99.90;;;;;;5079694;28;20251;-53
2021/11/20 04:21:45;;;;;;;31.93;20.00;;;11.40;99.90;;;;;;5058385;28;20987;-51
2021/11/20 04:24:12;;;;;;;32.37;19.70;;;11.30;99.90;;;;;;5078827;28;20829;-51
2021/11/20 04:26:39;;;;;;;32.23;19.40;;;11.30;99.90;;;;;;5076062;28;20198;-51
2021/11/20 04:29:06;;;;;;;29.77;19.47;;;11.20;99.90;;;;;;5077390;28;20203;-50
2021/11/20 04:31:34;;;;;;;31.40;18.77;;;11.20;99.90;;;;;;5080728;28;20264;-51
2021/11/20 04:34:01;;;;;;;28.20;17.13;;;11.20;99.90;;;;;;5077173;28;20206;-51
2021/11/20 04:36:29;;;;;;;28.27;17.23;;;11.30;99.90;;;;;;5077122;28;20234;-52
2021/11/20 04:38:56;;;;;;;27.50;17.53;;;11.20;99.90;;;;;;5077706;28;20446;-51
2021/11/20 04:41:23;;;;;;;32.57;19.53;;;11.20;99.90;;;;;;5058899;28;20373;-50
2021/11/20 04:43:51;;;;;;;33.47;20.27;;;11.10;99.90;;;;;;5072152;28;20228;-53
2021/11/20 04:46:20;;;;;;;35.70;20.77;;;11.10;99.90;;;;;;5074424;28;20363;-51
2021/11/20 04:48:47;;;;;;;34.70;19.37;;;11.20;99.90;;;;;;5077331;28;20195;-52
2021/11/20 04:51:14;;;;;;;33.50;20.97;;;11.20;99.90;;;;;;5070174;28;20622;-50
2021/11/20 04:53:45;;;;;;;34.67;20.67;;;11.20;99.90;;;;;;5079355;28;20243;-51
2021/11/20 04:56:15;;;;;;;35.47;20.80;;;11.30;99.90;;;;;;5076099;28;20585;-51
2021/11/20 04:58:43;;;;;;;38.03;22.57;;;11.30;99.90;;;;;;5076260;28;20289;-51
2021/11/20 05:01:10;;;;;;;39.67;22.90;;;11.30;99.90;;;;;;5058463;28;20222;-51
2021/11/20 05:03:40;;;;;;;37.77;21.37;;;11.20;99.90;;;;;;5076827;28;20659;-50
2021/11/20 05:06:08;;;;;;;37.17;21.33;;;11.40;99.90;;;;;;5076879;28;20203;-52
2021/11/20 05:08:35;;;;;;;39.63;23.67;;;11.50;99.90;;;;;;5075110;28;20891;-51
2021/11/20 05:11:02;;;;;;;35.57;21.53;;;11.30;99.90;;;;;;5075698;28;20205;-50
2021/11/20 05:13:29;;;;;;;41.10;24.17;;;11.20;99.90;;;;;;5076526;28;20265;-50
2021/11/20 05:15:57;;;;;;;44.17;24.03;;;11.20;99.90;;;;;;5075533;28;20768;-51
2021/11/20 05:18:26;;;;;;;41.83;24.47;;;11.10;99.90;;;;;;5074159;28;20219;-50
2021/11/20 05:20:55;;;;;;;39.53;24.23;;;11.00;99.90;;;;;;5075854;28;20320;-51
2021/11/20 05:23:23;;;;;;;40.53;23.80;;;11.10;99.90;;;;;;5076324;28;20744;-51
2021/11/20 05:25:50;;;;;;;36.10;23.03;;;11.30;99.90;;;;;;5077557;28;20245;-51
2021/11/20 05:28:18;;;;;;;39.57;24.40;;;11.10;99.90;;;;;;5066042;28;20265;-50
2021/11/20 05:30:46;;;;;;;38.20;23.40;;;11.00;99.90;;;;;;5078362;28;20225;-50
2021/11/20 05:33:24;;;;;;;36.23;21.87;;;11.00;99.90;;;;;;5081239;28;20195;-52
2021/11/20 05:35:51;;;;;;;38.90;24.00;;;11.10;99.90;;;;;;5078522;28;20215;-51
2021/11/20 05:38:19;;;;;;;39.33;23.00;;;11.00;99.90;;;;;;5079026;28;20342;-53
2021/11/20 05:40:46;;;;;;;36.87;23.30;;;11.10;99.90;;;;;;5079016;28;20196;-52
2021/11/20 05:43:19;;;;;;;37.93;23.93;;;11.10;99.90;;;;;;5071089;28;20199;-51
2021/11/20 05:45:50;;;;;;;39.20;24.67;;;11.20;99.90;;;;;;5064343;28;20231;-50
2021/11/20 05:48:16;;;;;;;40.07;23.77;;;11.20;99.90;;;;;;5075579;28;20606;-51
2021/11/20 05:50:44;;;;;;;39.43;22.97;;;11.20;99.90;;;;;;5078489;28;20639;-52
2021/11/20 05:53:20;;;;;;;42.03;25.60;;;11.30;99.90;;;;;;5077198;28;20650;-52
2021/11/20 05:55:49;;;;;;;40.27;24.23;;;11.20;99.90;;;;;;5080492;28;20311;-51
2021/11/20 05:58:18;;;;;;;43.20;24.70;;;11.20;99.90;;;;;;5080276;28;20321;-51
2021/11/20 06:00:48;;;;;;;36.90;23.23;;;11.10;99.90;;;;;;5080960;28;20260;-51
2021/11/20 06:03:18;;;;;;;42.57;25.47;;;11.20;99.90;;;;;;5082818;28;20241;-50
2021/11/20 06:05:46;;;;;;;40.97;25.67;;;11.10;99.90;;;;;;5083109;28;20190;-52
2021/11/20 06:08:14;;;;;;;40.13;25.07;;;11.00;99.90;;;;;;5080641;28;20203;-52
2021/11/20 06:10:44;;;;;;;37.50;23.23;;;11.10;99.90;;;;;;5082050;28;20229;-52
2021/11/20 06:13:11;;;;;;;41.43;24.50;;;11.10;99.90;;;;;;5082331;28;20202;-52
2021/11/20 06:15:40;;;;;;;38.40;24.73;;;11.30;99.90;;;;;;5080807;28;20284;-52
2021/11/20 06:18:08;;;;;;;43.50;25.10;;;11.20;99.90;;;;;;5079882;28;20286;-51
2021/11/20 06:20:37;;;;;;;42.67;25.50;;;11.10;99.90;;;;;;5081391;28;20311;-51
2021/11/20 06:23:25;;;;;;;42.33;25.60;;;11.10;99.90;;;;;;5080987;28;20231;-51
2021/11/20 06:25:52;;;;;;;49.30;28.63;;;10.90;99.90;;;;;;5079497;28;20231;-51
2021/11/20 06:28:19;;;;;;;48.33;25.90;;;10.90;99.90;;;;;;5080668;28;20194;-52
2021/11/20 06:30:46;;;;;;;46.67;25.57;;;10.90;99.90;;;;;;5072055;28;20630;-52
2021/11/20 06:33:13;;;;;;;44.13;26.17;;;11.00;99.90;;;;;;5082968;28;20585;-51
2021/11/20 06:35:40;;;;;;;47.47;27.77;;;11.10;99.90;;;;;;5080236;28;20214;-50
2021/11/20 06:38:07;;;;;;;43.83;25.00;;;11.20;99.90;;;;;;5080818;28;20225;-51
2021/11/20 06:40:38;;;;;;;46.37;24.97;;;11.10;99.90;;;;;;5078550;28;20226;-50
2021/11/20 06:43:08;;;;;;;54.90;28.97;;;11.20;99.90;;;;;;5072248;28;20253;-51
2021/11/20 06:45:38;;;;;;;48.20;28.10;;;11.00;99.90;;;;;;5077789;28;20730;-54
2021/11/20 06:48:06;;;;;;;53.50;27.80;;;10.90;99.90;;;;;;5080709;28;20250;-54
2021/11/20 06:50:35;;;;;;;48.90;27.13;;;11.10;99.90;;;;;;5079183;28;20286;-52
2021/11/20 06:53:05;;;;;;;53.10;28.20;;;11.00;99.90;;;;;;5079926;28;20282;-52
2021/11/20 06:55:34;;;;;;;48.10;27.33;;;11.10;99.90;;;;;;5080079;28;20270;-51
2021/11/20 06:58:20;;;;;;;45.57;25.80;;;10.90;99.90;;;;;;5077979;28;20222;-50
2021/11/20 07:00:53;;;;;;;40.73;26.73;;;10.90;99.90;;;;;;5074966;28;20247;-51
2021/11/20 07:03:23;;;;;;;49.73;27.23;;;10.90;99.90;;;;;;5076473;28;20289;-51
2021/11/20 07:05:55;;;;;;;45.63;27.07;;;10.80;99.90;;;;;;5075533;28;20308;-53
2021/11/20 07:08:25;;;;;;;44.07;25.70;;;10.90;99.90;;;;;;5079062;28;20234;-51
2021/11/20 07:10:56;;;;;;;45.70;27.33;;;11.00;99.90;;;;;;5075917;28;20278;-51
2021/11/20 07:13:24;;;;;;;47.07;27.07;;;10.90;99.90;;;;;;5078525;28;20249;-52
2021/11/20 07:15:52;;;;;;;42.73;25.97;;;11.00;99.90;;;;;;5077302;28;20322;-51
2021/11/20 07:18:20;;;;;;;46.27;26.93;;;10.80;99.90;;;;;;5075336;28;20673;-53
2021/11/20 07:20:47;;;;;;;44.43;26.73;;;10.80;99.90;;;;;;5070824;28;20228;-51
2021/11/20 07:23:15;;;;;;;45.47;25.57;;;10.90;99.90;;;;;;5073861;28;20229;-52
2021/11/20 07:25:43;;;;;;;39.87;25.20;;;11.00;99.90;;;;;;5079254;28;20714;-52
2021/11/20 07:28:10;;;;;;;35.07;22.57;;;11.00;99.90;;;;;;5076479;28;20649;-52
2021/11/20 07:30:39;;;;;;;37.30;21.93;;;11.10;99.90;;;;;;5078803;28;20231;-52
2021/11/20 07:33:07;;;;;;;33.80;21.37;;;11.20;99.90;;;;;;5079140;28;20230;-50
2021/11/20 07:35:36;;;;;;;35.60;23.00;;;11.30;99.90;;;;;;5077706;28;20331;-50
2021/11/20 07:38:05;;;;;;;34.17;21.63;;;11.30;99.90;;;;;;5077066;28;20192;-52
2021/11/20 07:40:35;;;;;;;35.17;21.03;;;11.30;99.90;;;;;;5065049;28;20252;-50
2021/11/20 07:43:02;;;;;;;30.87;22.10;;;11.40;99.90;;;;;;5079985;28;20524;-50
2021/11/20 07:45:29;;;;;;;33.93;21.03;;;11.20;99.90;;;;;;5078966;28;20327;-49
2021/11/20 07:48:02;;;;;;;33.77;21.23;;;11.10;99.90;;;;;;5079209;28;20203;-51
2021/11/20 07:50:29;;;;;;;34.10;21.53;;;11.30;99.90;;;;;;5076373;28;20272;-50
2021/11/20 07:52:56;;;;;;;33.10;21.33;;;11.40;99.90;;;;;;5078679;28;20621;-50
2021/11/20 07:55:23;;;;;;;36.83;22.97;;;11.50;99.90;;;;;;5075762;28;20692;-50
2021/11/20 07:57:50;;;;;;;32.97;20.97;;;11.50;99.90;;;;;;5075474;28;20846;-50
2021/11/20 08:00:20;;;;;;;35.73;21.70;;;11.50;99.90;;;;;;5073550;28;20361;-49
2021/11/20 08:02:47;;;;;;;33.80;21.23;;;11.50;99.90;;;;;;5067590;28;21945;-53
2021/11/20 08:05:15;;;;;;;30.63;20.73;;;11.40;99.90;;;;;;5077124;28;20296;-53
2021/11/20 08:07:44;;;;;;;33.10;20.73;;;11.30;99.90;;;;;;5067005;28;20204;-50
2021/11/20 08:10:15;;;;;;;35.43;21.93;;;11.20;99.90;;;;;;5077604;28;20323;-50
2021/11/20 08:12:42;;;;;;;32.57;20.97;;;11.40;99.90;;;;;;5078229;28;20307;-51
2021/11/20 08:15:10;;;;;;;33.13;21.47;;;11.40;99.90;;;;;;5078897;28;20211;-52
2021/11/20 08:17:37;;;;;;;37.33;21.13;;;11.40;99.90;;;;;;5073765;28;20609;-52
2021/11/20 08:20:08;;;;;;;36.93;21.20;;;11.30;99.90;;;;;;5074279;28;20313;-52
2021/11/20 08:22:35;;;;;;;35.77;21.27;;;11.20;99.90;;;;;;5079047;28;20198;-50
2021/11/20 08:25:05;;;;;;;33.80;22.00;;;11.20;99.90;;;;;;5067906;28;20637;-51
2021/11/20 08:27:31;;;;;;;33.90;21.50;;;11.20;99.90;;;;;;5079230;28;20286;-51
2021/11/20 08:29:58;;;;;;;35.30;20.83;;;11.30;99.90;;;;;;5077201;28;20297;-51
2021/11/20 08:32:26;;;;;;;31.47;20.93;;;11.40;99.90;;;;;;5078107;28;20214;-51
2021/11/20 08:34:56;;;;;;;35.40;21.77;;;11.40;99.90;;;;;;5079027;28;20737;-51
2021/11/20 08:37:23;;;;;;;34.27;20.77;;;11.50;99.90;;;;;;5074368;28;20195;-53
2021/11/20 08:39:53;;;;;;;37.77;22.37;;;11.40;99.90;;;;;;5077249;28;20673;-52
2021/11/20 08:42:19;;;;;;;32.13;20.80;;;11.30;99.90;;;;;;5061031;28;20291;-50
2021/11/20 08:44:47;;;;;;;35.40;22.07;;;11.20;99.90;;;;;;5071127;28;20210;-52
2021/11/20 08:47:14;;;;;;;34.17;21.80;;;11.20;99.90;;;;;;5078640;28;20240;-50
2021/11/20 08:49:42;;;;;;;35.87;22.07;;;11.20;99.90;;;;;;5076145;28;20813;-50
2021/11/20 08:52:10;;;;;;;35.97;21.57;;;11.40;99.90;;;;;;5074709;28;20236;-51
2021/11/20 08:54:38;;;;;;;32.57;21.50;;;11.40;99.90;;;;;;5078187;28;20307;-50
2021/11/20 08:57:07;;;;;;;36.90;22.93;;;11.40;99.90;;;;;;5078845;28;20223;-50
2021/11/20 08:59:34;;;;;;;36.40;23.07;;;11.30;99.90;;;;;;5061866;28;20248;-51
2021/11/20 09:02:09;;;;;;;35.93;22.17;;;11.30;99.90;;;;;;5061585;28;20210;-51
2021/11/20 09:04:39;;;;;;;39.47;23.80;;;11.30;99.90;;;;;;5080184;28;20252;-53
2021/11/20 09:07:22;;;;;;;35.53;22.67;;;11.20;99.90;;;;;;5078938;28;20195;-52
2021/11/20 09:09:55;;;;;;;34.83;21.73;;;11.20;99.90;;;;;;5075134;28;20283;-52
2021/11/20 09:12:31;;;;;;;36.70;24.10;;;11.10;99.90;;;;;;5079200;28;20194;-51
2021/11/20 09:15:04;;;;;;;35.63;23.97;;;11.10;99.90;;;;;;5080523;28;20258;-50
2021/11/20 09:17:31;;;;;;;37.20;22.70;;;11.00;99.90;;;;;;5076612;28;20264;-51
2021/11/20 09:19:58;;;;;;;36.43;22.57;;;11.10;99.90;;;;;;5076926;28;20371;-51
2021/11/20 09:22:26;;;;;;;36.63;22.73;;;11.20;99.90;;;;;;5075108;28;20207;-52
2021/11/20 09:24:52;;;;;;;38.57;22.87;;;11.10;99.90;;;;;;5070919;28;20308;-51
2021/11/20 09:27:40;;;;;;;35.13;22.73;;;11.10;99.90;;;;;;5061472;28;20525;-52
2021/11/20 09:30:15;;;;;;;34.20;21.07;;;11.20;99.90;;;;;;5076026;28;20207;-50
2021/11/20 09:32:43;;;;;;;36.83;21.73;;;11.20;99.90;;;;;;5078426;28;20220;-50
2021/11/20 09:35:10;;;;;;;35.47;21.67;;;11.20;99.90;;;;;;5056856;28;20621;-52
2021/11/20 09:37:36;;;;;;;34.47;22.33;;;11.20;99.90;;;;;;5068250;28;20274;-53
2021/11/20 09:40:07;;;;;;;31.13;21.73;;;11.10;99.90;;;;;;5073113;28;20256;-51
2021/11/20 09:42:36;;;;;;;35.03;21.70;;;11.10;99.90;;;;;;5076725;28;20668;-52
2021/11/20 09:45:35;;;;;;;33.77;22.23;;;11.20;99.90;;;;;;5072793;28;20249;-50
2021/11/20 09:48:14;;;;;;;35.07;22.20;;;11.10;99.90;;;;;;5077312;28;20333;-51
2021/11/20 09:50:54;;;;;;;34.07;20.93;;;11.10;99.90;;;;;;5076228;28;20214;-50
2021/11/20 09:53:22;;;;;;;31.90;20.00;;;11.20;99.90;;;;;;5078567;28;20333;-52
2021/11/20 09:55:54;;;;;;;30.93;19.43;;;11.20;99.90;;;;;;5075445;28;20247;-52
2021/11/20 09:58:35;;;;;;;30.37;19.03;;;11.20;99.90;;;;;;5076073;28;20192;-50
2021/11/20 10:01:27;;;;;;;34.70;20.20;;;11.10;99.90;;;;;;5068811;28;20292;-50
2021/11/20 10:04:02;;;;;;;30.00;18.97;;;11.10;99.90;;;;;;5068816;28;20198;-53
2021/11/20 10:06:31;;;;;;;29.63;19.20;;;11.10;99.90;;;;;;5076037;28;20218;-51
2021/11/20 10:09:36;;;;;;;28.83;18.47;;;11.20;99.90;;;;;;5067714;28;20735;-52
2021/11/20 10:12:14;;;;;;;26.70;18.17;;;11.10;99.90;;;;;;5074732;28;20959;-50
2021/11/20 10:14:45;;;;;;;28.77;17.93;;;11.10;99.90;;;;;;5076753;28;20268;-50
2021/11/20 10:17:21;;;;;;;28.33;18.63;;;11.20;99.90;;;;;;5075812;28;20217;-50
2021/11/20 10:19:53;;;;;;;28.93;18.10;;;11.20;99.90;;;;;;5074277;28;20313;-50
2021/11/20 10:22:38;;;;;;;32.33;18.43;;;11.20;99.90;;;;;;5070807;28;20264;-51
2021/11/20 10:25:22;;;;;;;26.50;17.83;;;11.30;99.90;;;;;;5072862;28;20375;-51
2021/11/20 10:28:28;;;;;;;28.13;18.17;;;11.30;99.90;;;;;;5069366;28;20207;-52
2021/11/20 10:31:25;;;;;;;23.30;15.83;;;11.30;99.90;;;;;;5074855;28;20226;-51
2021/11/20 10:34:35;;;;;;;29.23;17.73;;;11.40;99.90;;;;;;5076810;28;20198;-51
2021/11/20 10:37:13;;;;;;;23.13;16.47;;;11.30;99.90;;;;;;5064598;28;20618;-52
2021/11/20 10:39:49;;;;;;;26.03;17.67;;;11.30;99.90;;;;;;5078332;28;20210;-50
2021/11/20 10:42:32;;;;;;;26.13;16.13;;;11.30;99.90;;;;;;5080282;28;20734;-51
2021/11/20 10:45:21;;;;;;;27.53;15.73;;;11.30;99.90;;;;;;5077909;28;20874;-51
2021/11/20 10:48:01;;;;;;;23.70;16.17;;;11.40;99.90;;;;;;5080587;28;20239;-52
2021/11/20 10:50:39;;;;;;;24.83;16.00;;;11.40;99.90;;;;;;5079178;28;20245;-50
2021/11/20 10:53:27;;;;;;;23.13;15.10;;;11.40;99.90;;;;;;5080580;28;20276;-51
2021/11/20 10:56:23;;;;;;;22.90;15.30;;;11.40;99.90;;;;;;5077315;28;20803;-50
2021/11/20 10:59:19;;;;;;;24.60;14.60;;;11.50;99.90;;;;;;5077954;28;20660;-52
2021/11/20 11:01:54;;;;;;;21.33;14.73;;;11.50;99.90;;;;;;5077344;28;20290;-52
2021/11/20 11:04:53;;;;;;;23.37;14.80;;;11.40;99.90;;;;;;5066692;28;21794;-51
2021/11/20 11:07:32;;;;;;;23.00;14.97;;;11.30;99.90;;;;;;5064028;28;20252;-51
2021/11/20 11:10:04;;;;;;;22.30;14.90;;;11.40;99.90;;;;;;5071066;28;20227;-51
2021/11/20 11:12:48;;;;;;;25.33;16.13;;;11.40;99.90;;;;;;5066003;28;20262;-50
2021/11/20 11:15:17;;;;;;;22.77;14.07;;;11.30;99.90;;;;;;5079017;28;20934;-51
2021/11/20 11:17:51;;;;;;;21.60;15.37;;;11.40;99.90;;;;;;5068371;28;20248;-50
2021/11/20 11:20:45;;;;;;;20.10;14.10;;;11.30;99.90;;;;;;5073076;28;20389;-51
2021/11/20 11:23:31;;;;;;;23.73;14.40;;;11.20;99.90;;;;;;5080370;28;20253;-50
2021/11/20 11:26:08;;;;;;;22.73;14.37;;;11.20;99.90;;;;;;5076331;28;20245;-53
2021/11/20 11:28:51;;;;;;;21.83;13.43;;;11.20;99.90;;;;;;5079178;28;20240;-52
2021/11/20 11:31:29;;;;;;;21.87;15.07;;;11.30;99.90;;;;;;5079708;28;20247;-51
2021/11/20 11:34:02;;;;;;;22.40;15.40;;;11.40;99.90;;;;;;5079430;28;20226;-49
2021/11/20 11:36:52;;;;;;;23.77;15.03;;;11.30;99.90;;;;;;5081068;28;20234;-51
2021/11/20 11:39:40;;;;;;;24.87;16.30;;;11.30;99.90;;;;;;5076760;28;20227;-51
2021/11/20 11:42:28;;;;;;;21.50;14.53;;;11.40;99.90;;;;;;5079393;28;20199;-51
2021/11/20 11:45:21;;;;;;;23.13;16.00;;;11.40;99.90;;;;;;5080058;28;20241;-51
2021/11/20 11:48:15;;;;;;;21.93;15.20;;;11.30;99.90;;;;;;5032114;28;20326;-51
2021/11/20 11:51:05;;;;;;;23.33;15.30;;;11.20;99.90;;;;;;5075062;28;20294;-51
2021/11/20 11:53:35;;;;;;;20.90;15.10;;;11.20;99.90;;;;;;5078076;28;20322;-50
2021/11/20 11:56:09;;;;;;;22.07;15.80;;;11.10;99.90;;;;;;5073860;28;20246;-51
2021/11/20 11:59:02;;;;;;;22.93;14.20;;;11.10;99.90;;;;;;5076480;28;20655;-52
2021/11/20 12:02:00;;;;;;;22.83;15.23;;;11.10;99.90;;;;;;5078574;28;20199;-51
2021/11/20 12:04:33;;;;;;;20.70;15.13;;;11.10;99.90;;;;;;5080304;28;20214;-50
2021/11/20 12:07:24;;;;;;;24.47;15.63;;;11.10;99.90;;;;;;5078851;28;20233;-50
2021/11/20 12:10:07;;;;;;;22.33;14.47;;;11.00;99.90;;;;;;5079933;28;20199;-50
2021/11/20 12:12:39;;;;;;;19.03;12.77;;;11.00;99.90;;;;;;5078287;28;20231;-51
2021/11/20 12:15:18;;;;;;;20.93;13.17;;;11.00;99.90;;;;;;5079690;28;20199;-50
2021/11/20 12:18:04;;;;;;;17.80;13.40;;;11.10;99.90;;;;;;5079236;28;20784;-50
2021/11/20 12:20:45;;;;;;;20.07;14.93;;;11.10;99.90;;;;;;5076427;28;20262;-51
2021/11/20 12:23:27;;;;;;;20.53;13.40;;;11.10;99.90;;;;;;5077493;28;20292;-52
2021/11/20 12:26:11;;;;;;;19.73;14.37;;;11.10;99.90;;;;;;5078693;28;20301;-51
2021/11/20 12:28:55;;;;;;;20.07;13.13;;;11.10;99.90;;;;;;5077514;28;20289;-52
2021/11/20 12:31:48;;;;;;;19.80;12.77;;;11.10;99.90;;;;;;5078149;28;20202;-50
2021/11/20 12:34:36;;;;;;;19.20;13.93;;;11.10;99.90;;;;;;5078175;28;20624;-51
2021/11/20 12:37:11;;;;;;;18.57;14.03;;;11.20;99.90;;;;;;5078104;28;20314;-51
2021/11/20 12:40:04;;;;;;;21.73;12.87;;;11.20;99.90;;;;;;5077947;28;20290;-50
2021/11/20 12:42:39;;;;;;;19.07;13.13;;;11.10;99.90;;;;;;5076799;28;20202;-51
2021/11/20 12:45:33;;;;;;;19.80;13.53;;;11.30;99.90;;;;;;5079032;28;20289;-51
2021/11/20 12:48:12;;;;;;;20.13;13.10;;;11.30;99.90;;;;;;5077642;28;20200;-51
2021/11/20 12:50:54;;;;;;;19.40;12.80;;;11.20;99.90;;;;;;5070323;28;20206;-52
2021/11/20 12:53:23;;;;;;;18.00;12.00;;;11.10;99.90;;;;;;5077891;28;20261;-52
2021/11/20 12:56:18;;;;;;;18.83;12.97;;;11.10;99.90;;;;;;5078279;28;20243;-51